createdAt,value
2023-03-06T00:00:45.970Z,85.09
2023-03-06T00:03:12.892Z,84.49
2023-03-06T00:05:40.239Z,84.51
2023-03-06T00:08:07.090Z,83.49
2023-03-06T00:10:34.359Z,84.20
2023-03-06T00:13:05.789Z,83.72
2023-03-06T00:15:32.751Z,83.64
2023-03-06T00:17:59.723Z,85.16
2023-03-06T00:20:27.079Z,85.07
2023-03-06T00:22:56.036Z,84.76
2023-03-06T00:25:23.087Z,85.55
2023-03-06T00:27:50.632Z,84.50
2023-03-06T00:30:23.505Z,85.01
2023-03-06T00:32:50.734Z,83.35
2023-03-06T00:35:17.733Z,84.91
2023-03-06T00:37:44.766Z,83.99
2023-03-06T00:40:18.137Z,83.83
2023-03-06T00:42:45.166Z,84.71
2023-03-06T00:45:12.537Z,84.24
2023-03-06T00:47:40.223Z,85.01
2023-03-06T00:50:07.415Z,83.89
2023-03-06T00:52:34.338Z,84.39
2023-03-06T00:55:02.071Z,84.59
2023-03-06T00:57:28.973Z,84.16
2023-03-06T00:59:57.483Z,84.06
2023-03-06T01:02:24.667Z,85.45
2023-03-06T01:04:54.481Z,84.79
2023-03-06T01:07:21.391Z,83.93
2023-03-06T01:09:48.266Z,85.01
2023-03-06T01:12:15.182Z,83.86
2023-03-06T01:14:41.995Z,84.52
2023-03-06T01:17:10.172Z,83.51
2023-03-06T01:19:37.044Z,85.26
2023-03-06T01:22:04.347Z,84.30
2023-03-06T01:24:31.755Z,84.06
2023-03-06T01:26:58.613Z,84.66
2023-03-06T01:29:26.593Z,85.56
2023-03-06T01:31:53.610Z,85.17
2023-03-06T01:34:20.791Z,85.93
2023-03-06T01:36:47.619Z,87.33
2023-03-06T01:39:14.549Z,85.51
2023-03-06T01:41:41.562Z,85.75
2023-03-06T01:44:11.409Z,85.96
2023-03-06T01:46:43.728Z,86.24
2023-03-06T01:49:19.024Z,83.85
2023-03-06T01:52:00.904Z,84.82
2023-03-06T01:54:34.362Z,86.12
2023-03-06T01:57:05.947Z,83.93
2023-03-06T01:59:35.541Z,86.03
2023-03-06T02:02:04.257Z,85.87
2023-03-06T02:04:31.897Z,85.57
2023-03-06T02:07:04.911Z,86.00
2023-03-06T02:09:35.302Z,86.08
2023-03-06T02:12:03.985Z,87.98
2023-03-06T02:14:30.840Z,87.53
2023-03-06T02:16:58.382Z,87.79
2023-03-06T02:19:32.850Z,87.11
2023-03-06T02:22:00.113Z,87.20
2023-03-06T02:24:40.267Z,86.08
2023-03-06T02:27:08.644Z,87.58
2023-03-06T02:29:35.860Z,87.11
2023-03-06T02:32:04.529Z,86.15
2023-03-06T02:34:37.690Z,86.70
2023-03-06T02:37:09.981Z,87.13
2023-03-06T02:39:43.159Z,86.95
2023-03-06T02:42:11.017Z,87.05
2023-03-06T02:44:37.932Z,86.13
2023-03-06T02:47:05.016Z,86.72
2023-03-06T02:49:31.870Z,86.46
2023-03-06T02:51:58.740Z,86.67
2023-03-06T02:54:25.692Z,88.11
2023-03-06T02:56:52.463Z,88.16
2023-03-06T02:59:19.202Z,86.80
2023-03-06T03:01:47.954Z,87.63
2023-03-06T03:04:14.818Z,86.61
2023-03-06T03:06:41.596Z,87.44
2023-03-06T03:09:08.777Z,88.16
2023-03-06T03:11:35.761Z,86.96
2023-03-06T03:14:02.533Z,86.09
2023-03-06T03:16:30.412Z,87.56
2023-03-06T03:18:58.763Z,87.70
2023-03-06T03:21:26.584Z,87.97
2023-03-06T03:23:54.985Z,89.11
2023-03-06T03:26:22.633Z,87.06
2023-03-06T03:28:57.331Z,87.11
2023-03-06T03:31:24.359Z,86.44
2023-03-06T03:33:51.140Z,88.58
2023-03-06T03:36:19.631Z,86.66
2023-03-06T03:38:47.640Z,87.53
2023-03-06T03:41:14.809Z,87.69
2023-03-06T03:43:42.853Z,86.01
2023-03-06T03:46:10.414Z,88.73
2023-03-06T03:48:37.489Z,88.20
2023-03-06T03:51:08.485Z,88.00
2023-03-06T03:53:38.837Z,88.52
2023-03-06T03:56:06.786Z,88.92
2023-03-06T03:58:38.460Z,87.94
2023-03-06T04:01:05.879Z,88.78
2023-03-06T04:03:32.931Z,89.00
2023-03-06T04:06:00.146Z,88.42
2023-03-06T04:08:27.976Z,89.17
2023-03-06T04:10:55.287Z,88.41
2023-03-06T04:13:24.342Z,88.88
2023-03-06T04:15:54.089Z,88.89
2023-03-06T04:18:23.565Z,88.87
2023-03-06T04:20:52.956Z,87.47
2023-03-06T04:23:21.014Z,87.85
2023-03-06T04:25:47.898Z,88.38
2023-03-06T04:28:14.978Z,88.04
2023-03-06T04:30:42.039Z,89.55
2023-03-06T04:33:09.285Z,88.80
2023-03-06T04:35:37.528Z,88.35
2023-03-06T04:38:09.728Z,87.61
2023-03-06T04:40:36.960Z,89.63
2023-03-06T04:43:04.446Z,88.13
2023-03-06T04:45:32.262Z,87.77
2023-03-06T04:47:59.545Z,87.60
2023-03-06T04:50:28.347Z,88.20
2023-03-06T04:52:55.176Z,87.36
2023-03-06T04:55:21.999Z,88.27
2023-03-06T04:57:49.867Z,88.58
2023-03-06T05:00:22.315Z,88.20
2023-03-06T05:02:49.916Z,88.38
2023-03-06T05:05:17.608Z,88.61
2023-03-06T05:07:44.773Z,87.89
2023-03-06T05:10:13.838Z,87.29
2023-03-06T05:12:40.695Z,88.81
2023-03-06T05:15:09.309Z,89.34
2023-03-06T05:17:36.138Z,89.52
2023-03-06T05:20:06.270Z,89.32
2023-03-06T05:22:34.410Z,89.57
2023-03-06T05:25:01.262Z,89.31
2023-03-06T05:27:28.623Z,90.45
2023-03-06T05:29:55.642Z,89.77
2023-03-06T05:32:22.743Z,90.65
2023-03-06T05:34:50.021Z,89.04
2023-03-06T05:37:16.822Z,89.24
2023-03-06T05:39:43.964Z,89.94
2023-03-06T05:42:10.776Z,90.60
2023-03-06T05:44:38.266Z,89.79
2023-03-06T05:47:05.201Z,90.28
2023-03-06T05:49:33.780Z,90.34
2023-03-06T05:52:01.305Z,90.03
2023-03-06T05:54:28.173Z,90.33
2023-03-06T05:56:57.303Z,90.19
2023-03-06T05:59:28.183Z,90.07
2023-03-06T06:01:55.402Z,90.45
2023-03-06T06:04:23.125Z,90.24
2023-03-06T06:06:58.291Z,89.68
2023-03-06T06:09:26.229Z,89.58
2023-03-06T06:11:55.097Z,89.22
2023-03-06T06:14:21.901Z,89.88
2023-03-06T06:16:49.095Z,89.82
2023-03-06T06:19:18.955Z,89.98
2023-03-06T06:21:50.598Z,90.06
2023-03-06T06:24:19.401Z,88.96
2023-03-06T06:26:46.753Z,88.84
2023-03-06T06:29:13.776Z,88.85
2023-03-06T06:31:41.275Z,88.37
2023-03-06T06:34:09.561Z,87.26
2023-03-06T06:36:36.957Z,87.26
2023-03-06T06:39:04.946Z,87.58
2023-03-06T06:42:02.390Z,88.13
2023-03-06T06:44:19.333Z,88.85
2023-03-06T06:49:34.106Z,88.07
2023-03-06T06:52:01.066Z,87.65
2023-03-06T06:54:28.012Z,87.78
2023-03-06T06:56:57.500Z,87.68
2023-03-06T06:59:24.365Z,87.47
2023-03-06T07:01:51.963Z,87.51
2023-03-06T07:04:19.495Z,87.54
2023-03-06T07:06:46.444Z,88.10
2023-03-06T07:09:13.855Z,88.41
2023-03-06T07:11:41.585Z,89.39
2023-03-06T07:14:08.927Z,88.83
2023-03-06T07:16:35.821Z,88.20
2023-03-06T07:19:03.046Z,88.49
2023-03-06T07:21:30.245Z,88.15
2023-03-06T07:23:57.695Z,88.49
2023-03-06T07:26:28.525Z,87.94
2023-03-06T07:28:55.507Z,87.53
2023-03-06T07:31:24.887Z,88.04
2023-03-06T07:33:53.272Z,86.97
2023-03-06T07:36:21.133Z,87.42
2023-03-06T07:38:48.226Z,87.02
2023-03-06T07:41:16.571Z,88.28
2023-03-06T07:43:45.248Z,87.52
2023-03-06T07:46:15.862Z,87.34
2023-03-06T07:48:43.260Z,87.57
2023-03-06T07:51:21.302Z,87.30
2023-03-06T07:53:49.152Z,86.89
2023-03-06T07:56:16.343Z,86.20
2023-03-06T07:58:45.403Z,87.07
2023-03-06T08:01:14.901Z,87.70
2023-03-06T08:03:41.953Z,87.81
2023-03-06T08:06:12.890Z,87.42
2023-03-06T08:08:40.639Z,86.80
2023-03-06T08:11:08.790Z,88.22
2023-03-06T08:13:35.942Z,88.24
2023-03-06T08:16:03.708Z,87.82
2023-03-06T08:18:30.751Z,86.74
2023-03-06T08:21:14.818Z,86.91
2023-03-06T08:23:41.974Z,87.46
2023-03-06T08:26:17.423Z,86.99
2023-03-06T08:28:44.661Z,88.35
2023-03-06T08:31:12.904Z,88.71
2023-03-06T08:33:40.249Z,87.90
2023-03-06T08:36:07.348Z,88.31
2023-03-06T08:38:34.161Z,88.89
2023-03-06T08:41:01.036Z,89.02
2023-03-06T08:43:28.229Z,89.76
2023-03-06T08:45:56.727Z,87.94
2023-03-06T08:48:23.764Z,88.65
2023-03-06T08:50:50.776Z,87.80
2023-03-06T08:53:18.300Z,88.09
2023-03-06T08:55:45.572Z,88.26
2023-03-06T08:58:12.562Z,89.02
2023-03-06T09:00:39.893Z,88.21
2023-03-06T09:03:06.810Z,87.88
2023-03-06T09:05:33.646Z,87.30
2023-03-06T09:08:00.477Z,86.45
2023-03-06T09:10:27.880Z,86.16
2023-03-06T09:12:55.189Z,87.22
2023-03-06T09:15:23.358Z,85.84
2023-03-06T09:17:51.007Z,86.16
2023-03-06T09:20:18.460Z,85.07
2023-03-06T09:22:48.365Z,85.00
2023-03-06T09:25:20.312Z,84.87
2023-03-06T09:27:55.421Z,83.43
2023-03-06T09:30:29.392Z,83.21
2023-03-06T09:32:56.716Z,83.96
2023-03-06T09:35:23.619Z,84.57
2023-03-06T09:37:50.452Z,84.25
2023-03-06T09:40:36.700Z,85.16
2023-03-06T09:43:03.586Z,85.08
2023-03-06T09:45:30.854Z,85.30
2023-03-06T09:48:13.884Z,85.54
2023-03-06T09:50:46.016Z,85.09
2023-03-06T09:53:36.166Z,85.81
2023-03-06T09:56:18.373Z,86.04
2023-03-06T09:58:57.649Z,86.16
2023-03-06T10:01:25.668Z,86.82
2023-03-06T10:04:17.385Z,86.53
2023-03-06T10:06:49.607Z,86.74
2023-03-06T10:09:23.604Z,87.14
2023-03-06T10:11:57.387Z,87.75
2023-03-06T10:14:48.891Z,86.20
2023-03-06T10:17:19.598Z,85.31
2023-03-06T10:19:49.897Z,85.79
2023-03-06T10:22:35.335Z,83.75
2023-03-06T10:25:20.261Z,82.54
2023-03-06T10:27:48.020Z,82.95
2023-03-06T10:30:20.893Z,83.54
2023-03-06T10:32:58.812Z,83.59
2023-03-06T10:35:33.578Z,81.58
2023-03-06T10:38:32.946Z,80.94
2023-03-06T10:41:05.686Z,83.62
2023-03-06T10:43:36.177Z,82.92
2023-03-06T10:46:03.922Z,82.48
2023-03-06T10:48:35.909Z,83.46
2023-03-06T10:51:23.999Z,83.12
2023-03-06T10:53:53.614Z,83.60
2023-03-06T10:56:34.658Z,83.55
2023-03-06T10:59:21.602Z,83.01
2023-03-06T11:01:57.418Z,81.38
2023-03-06T11:04:30.483Z,82.09
2023-03-06T11:07:06.436Z,81.55
2023-03-06T11:09:33.838Z,81.53
2023-03-06T11:12:21.453Z,79.99
2023-03-06T11:15:10.095Z,78.92
2023-03-06T11:17:48.926Z,79.18
2023-03-06T11:20:20.417Z,79.44
2023-03-06T11:23:07.454Z,76.95
2023-03-06T11:25:43.706Z,76.47
2023-03-06T11:28:26.416Z,77.48
2023-03-06T11:30:59.041Z,76.08
2023-03-06T11:33:29.719Z,75.32
2023-03-06T11:36:14.711Z,76.57
2023-03-06T11:38:52.771Z,76.12
2023-03-06T11:41:37.956Z,74.30
2023-03-06T11:44:29.495Z,74.75
2023-03-06T11:47:17.859Z,73.61
2023-03-06T11:49:49.314Z,72.49
2023-03-06T11:52:22.228Z,70.13
2023-03-06T11:54:55.491Z,70.70
2023-03-06T11:57:35.574Z,68.94
2023-03-06T12:00:20.873Z,68.87
2023-03-06T12:03:05.897Z,66.40
2023-03-06T12:05:37.160Z,66.17
2023-03-06T12:08:25.708Z,74.12
2023-03-06T12:11:20.165Z,76.32
2023-03-06T12:13:56.297Z,80.31
2023-03-06T12:16:39.295Z,80.79
2023-03-06T12:19:12.067Z,83.59
2023-03-06T12:22:01.430Z,85.07
2023-03-06T12:24:50.326Z,86.51
2023-03-06T12:27:25.852Z,87.04
2023-03-06T12:29:59.608Z,88.02
2023-03-06T12:32:36.759Z,87.07
2023-03-06T12:35:42.275Z,86.63
2023-03-06T12:38:27.163Z,87.37
2023-03-06T12:41:05.194Z,87.65
2023-03-06T12:43:53.711Z,86.00
2023-03-06T12:46:25.688Z,84.65
2023-03-06T12:49:32.694Z,84.95
2023-03-06T12:52:01.324Z,84.56
2023-03-06T12:54:35.531Z,85.92
2023-03-06T12:57:02.869Z,86.02
2023-03-06T12:59:42.498Z,85.70
2023-03-06T13:02:28.076Z,83.72
2023-03-06T13:05:38.142Z,80.71
2023-03-06T13:08:04.952Z,78.72
2023-03-06T13:10:36.383Z,78.24
2023-03-06T13:13:25.055Z,77.64
2023-03-06T13:16:03.878Z,77.81
2023-03-06T13:18:33.543Z,78.13
2023-03-06T13:21:00.405Z,77.54
2023-03-06T13:23:33.390Z,79.30
2023-03-06T13:26:05.284Z,77.19
2023-03-06T13:28:54.099Z,74.59
2023-03-06T13:31:28.760Z,71.54
2023-03-06T13:34:26.547Z,68.78
2023-03-06T13:36:53.351Z,69.38
2023-03-06T13:39:20.161Z,71.12
2023-03-06T13:41:54.126Z,74.17
2023-03-06T13:44:23.801Z,76.93
2023-03-06T13:47:02.316Z,76.99
2023-03-06T13:49:29.662Z,74.48
2023-03-06T13:51:56.479Z,70.83
2023-03-06T13:54:41.978Z,69.93
2023-03-06T13:57:32.567Z,71.63
2023-03-06T14:00:28.437Z,68.79
2023-03-06T14:03:15.533Z,65.91
2023-03-06T14:05:50.068Z,68.82
2023-03-06T14:08:24.991Z,71.09
2023-03-06T14:11:21.608Z,71.49
2023-03-06T14:13:56.084Z,71.36
2023-03-06T14:16:32.716Z,72.48
2023-03-06T14:19:04.480Z,74.12
2023-03-06T14:21:53.653Z,75.26
2023-03-06T14:24:29.416Z,73.11
2023-03-06T14:26:56.305Z,72.15
2023-03-06T14:29:25.677Z,71.77
2023-03-06T14:31:54.328Z,69.40
2023-03-06T14:34:21.981Z,67.42
2023-03-06T14:37:02.685Z,64.27
2023-03-06T14:39:42.387Z,67.14
2023-03-06T14:42:24.835Z,64.71
2023-03-06T14:45:15.986Z,63.34
2023-03-06T14:47:43.351Z,65.22
2023-03-06T14:50:27.790Z,64.23
2023-03-06T14:53:05.947Z,66.45
2023-03-06T14:55:35.458Z,60.18
2023-03-06T14:58:15.732Z,64.88
2023-03-06T15:00:45.109Z,66.14
2023-03-06T15:03:38.884Z,68.41
2023-03-06T15:06:06.078Z,69.17
2023-03-06T15:08:35.135Z,67.21
2023-03-06T15:11:04.573Z,69.47
2023-03-06T15:13:33.167Z,68.25
2023-03-06T15:16:06.528Z,64.43
2023-03-06T15:18:36.287Z,60.85
2023-03-06T15:21:07.900Z,57.88
2023-03-06T15:23:39.637Z,62.87
2023-03-06T15:26:29.161Z,63.48
2023-03-06T15:29:22.187Z,63.97
2023-03-06T15:31:49.361Z,61.62
2023-03-06T15:34:23.693Z,59.14
2023-03-06T15:36:54.380Z,59.02
2023-03-06T15:39:41.265Z,56.70
2023-03-06T15:42:21.674Z,61.86
2023-03-06T15:44:54.139Z,65.93
2023-03-06T15:47:22.148Z,68.82
2023-03-06T15:49:53.343Z,71.51
2023-03-06T15:52:23.707Z,67.26
2023-03-06T15:54:50.594Z,68.50
2023-03-06T15:57:29.420Z,70.37
2023-03-06T15:59:56.732Z,68.87
2023-03-06T16:02:24.454Z,65.42
2023-03-06T16:04:51.979Z,66.39
2023-03-06T16:07:18.806Z,64.27
2023-03-06T16:09:45.773Z,67.11
2023-03-06T16:12:18.619Z,68.32
2023-03-06T16:14:47.717Z,70.44
2023-03-06T16:17:15.012Z,72.85
2023-03-06T16:19:41.975Z,69.87
2023-03-06T16:22:08.855Z,69.58
2023-03-06T16:24:35.688Z,70.38
2023-03-06T16:27:02.853Z,71.15
2023-03-06T16:29:30.568Z,71.88
2023-03-06T16:31:58.851Z,73.93
2023-03-06T16:34:26.094Z,72.73
2023-03-06T16:36:53.031Z,73.53
2023-03-06T16:39:21.973Z,72.70
2023-03-06T16:41:50.410Z,73.67
2023-03-06T16:44:17.491Z,73.32
2023-03-06T16:46:47.606Z,74.01
2023-03-06T16:49:24.148Z,75.04
2023-03-06T16:51:52.122Z,75.36
2023-03-06T16:54:19.622Z,76.41
2023-03-06T16:56:46.457Z,76.15
2023-03-06T16:59:13.499Z,78.31
2023-03-06T17:01:43.440Z,77.13
2023-03-06T17:04:11.012Z,78.19
2023-03-06T17:06:38.480Z,79.50
2023-03-06T17:09:05.448Z,79.19
2023-03-06T17:11:32.401Z,78.70
2023-03-06T17:13:59.499Z,79.54
2023-03-06T17:16:26.871Z,80.28
2023-03-06T17:18:55.179Z,80.15
2023-03-06T17:21:22.131Z,80.55
2023-03-06T17:23:50.932Z,80.41
2023-03-06T17:26:18.996Z,79.92
2023-03-06T17:28:46.716Z,79.04
2023-03-06T17:31:17.935Z,82.29
2023-03-06T17:33:45.588Z,82.92
2023-03-06T17:36:14.773Z,80.56
2023-03-06T17:38:42.304Z,79.25
2023-03-06T17:41:09.941Z,79.19
2023-03-06T17:43:37.569Z,78.58
2023-03-06T17:46:09.506Z,78.88
2023-03-06T17:48:36.657Z,78.49
2023-03-06T17:51:04.387Z,78.84
2023-03-06T17:53:31.689Z,80.58
2023-03-06T17:55:58.632Z,79.88
2023-03-06T17:58:26.566Z,80.63
2023-03-06T18:00:53.750Z,79.07
2023-03-06T18:03:20.809Z,80.26
2023-03-06T18:05:47.911Z,80.44
2023-03-06T18:08:14.878Z,80.95
2023-03-06T18:10:42.046Z,81.56
2023-03-06T18:13:10.337Z,81.91
2023-03-06T18:15:41.332Z,82.67
2023-03-06T18:18:08.966Z,82.79
2023-03-06T18:20:41.155Z,82.89
2023-03-06T18:23:08.212Z,83.27
2023-03-06T18:25:35.668Z,83.96
2023-03-06T18:28:02.492Z,83.51
2023-03-06T18:30:29.392Z,84.52
2023-03-06T18:32:56.341Z,83.87
2023-03-06T18:35:23.251Z,84.27
2023-03-06T18:37:50.589Z,83.98
2023-03-06T18:40:17.472Z,84.15
2023-03-06T18:42:44.329Z,83.28
2023-03-06T18:45:12.868Z,83.05
2023-03-06T18:47:40.336Z,82.20
2023-03-06T18:50:07.688Z,83.33
2023-03-06T18:52:34.926Z,79.39
2023-03-06T18:55:01.762Z,79.93
2023-03-06T18:57:30.316Z,81.57
2023-03-06T18:59:57.423Z,82.33
2023-03-06T19:02:24.290Z,82.03
2023-03-06T19:04:53.027Z,82.88
2023-03-06T19:07:19.858Z,82.98
2023-03-06T19:09:48.551Z,83.55
2023-03-06T19:12:15.757Z,83.39
2023-03-06T19:14:42.719Z,82.99
2023-03-06T19:17:09.616Z,83.52
2023-03-06T19:19:36.464Z,83.13
2023-03-06T19:22:03.347Z,83.27
2023-03-06T19:24:30.138Z,83.27
2023-03-06T19:26:57.003Z,82.72
2023-03-06T19:29:23.822Z,83.62
2023-03-06T19:31:52.277Z,83.51
2023-03-06T19:34:19.185Z,83.10
2023-03-06T19:36:46.074Z,82.86
2023-03-06T19:39:12.888Z,82.36
2023-03-06T19:41:39.755Z,82.19
2023-03-06T19:44:06.674Z,82.30
2023-03-06T19:46:34.592Z,82.43
2023-03-06T19:49:03.057Z,82.04
2023-03-06T19:51:30.078Z,82.02
2023-03-06T19:53:57.684Z,83.90
2023-03-06T19:56:26.979Z,85.80
2023-03-06T19:58:53.943Z,86.13
2023-03-06T20:01:23.112Z,86.72
2023-03-06T20:03:50.747Z,86.95
2023-03-06T20:06:19.444Z,87.62
2023-03-06T20:08:47.426Z,87.73
2023-03-06T20:11:22.022Z,87.09
2023-03-06T20:13:49.249Z,88.23
2023-03-06T20:16:17.705Z,86.99
2023-03-06T20:18:44.615Z,85.98
2023-03-06T20:21:13.365Z,86.12
2023-03-06T20:23:40.431Z,85.36
2023-03-06T20:26:09.789Z,86.35
2023-03-06T20:28:38.589Z,87.10
2023-03-06T20:31:11.316Z,87.33
2023-03-06T20:33:38.198Z,85.83
2023-03-06T20:36:11.425Z,85.88
2023-03-06T20:38:39.140Z,85.92
2023-03-06T20:41:06.045Z,84.61
2023-03-06T20:43:32.891Z,83.98
2023-03-06T20:46:01.753Z,84.82
2023-03-06T20:48:29.230Z,84.94
2023-03-06T20:51:03.862Z,83.55
2023-03-06T20:53:30.947Z,85.88
2023-03-06T20:55:57.810Z,86.26
2023-03-06T20:58:28.651Z,85.53
2023-03-06T21:00:55.362Z,84.74
2023-03-06T21:03:22.201Z,85.03
2023-03-06T21:05:49.171Z,85.67
2023-03-06T21:08:16.373Z,84.29
2023-03-06T21:10:45.954Z,84.78
2023-03-06T21:13:13.113Z,84.88
2023-03-06T21:15:43.144Z,84.87
2023-03-06T21:18:11.135Z,83.69
2023-03-06T21:20:39.474Z,83.67
2023-03-06T21:23:07.280Z,83.61
2023-03-06T21:25:34.531Z,83.44
2023-03-06T21:28:01.980Z,83.00
2023-03-06T21:30:29.554Z,82.58
2023-03-06T21:32:56.360Z,82.11
2023-03-06T21:35:23.235Z,83.26
2023-03-06T21:37:50.010Z,84.99
2023-03-06T21:40:17.485Z,84.74
2023-03-06T21:42:44.266Z,84.06
2023-03-06T21:45:12.074Z,84.99
2023-03-06T21:47:40.845Z,84.83
2023-03-06T21:50:09.302Z,86.22
2023-03-06T21:52:36.192Z,84.95
2023-03-06T21:55:03.005Z,85.03
2023-03-06T21:57:29.885Z,85.01
2023-03-06T21:59:56.664Z,85.96
2023-03-06T22:02:23.462Z,86.27
2023-03-06T22:04:52.271Z,85.46
2023-03-06T22:07:20.076Z,85.85
2023-03-06T22:09:47.090Z,85.98
2023-03-06T22:12:13.995Z,86.18
2023-03-06T22:14:43.556Z,85.10
2023-03-06T22:17:10.473Z,84.55
2023-03-06T22:19:37.297Z,85.39
2023-03-06T22:22:04.607Z,85.62
2023-03-06T22:24:32.055Z,84.99
2023-03-06T22:26:59.259Z,84.46
2023-03-06T22:29:26.414Z,86.11
2023-03-06T22:31:53.414Z,86.13
2023-03-06T22:34:20.402Z,86.11
2023-03-06T22:36:48.239Z,84.57
2023-03-06T22:39:15.217Z,86.54
2023-03-06T22:41:42.022Z,87.32
2023-03-06T22:44:15.723Z,88.54
2023-03-06T22:46:42.848Z,88.31
2023-03-06T22:49:11.561Z,86.86
2023-03-06T22:51:39.492Z,86.93
2023-03-06T22:54:07.581Z,86.88
2023-03-06T22:56:34.691Z,87.06
2023-03-06T22:59:01.903Z,87.28
2023-03-06T23:01:30.668Z,87.50
2023-03-06T23:04:00.009Z,87.42
2023-03-06T23:06:32.002Z,87.45
2023-03-06T23:09:14.390Z,87.22
2023-03-06T23:12:01.787Z,87.57
2023-03-06T23:14:51.175Z,87.12
2023-03-06T23:17:37.582Z,86.94
2023-03-06T23:20:23.336Z,86.66
2023-03-06T23:23:09.178Z,86.69
2023-03-06T23:25:43.642Z,86.47
2023-03-06T23:28:10.950Z,86.45
2023-03-06T23:30:39.483Z,86.04
2023-03-06T23:33:06.561Z,86.74
2023-03-06T23:35:34.792Z,86.85
2023-03-06T23:38:02.619Z,87.17
2023-03-06T23:40:31.715Z,87.05
2023-03-06T23:42:58.567Z,86.69
2023-03-06T23:45:25.509Z,87.11
2023-03-06T23:47:52.348Z,87.65
2023-03-06T23:50:19.476Z,87.37
2023-03-06T23:52:46.434Z,88.06
2023-03-06T23:55:13.320Z,87.19
2023-03-06T23:57:40.208Z,86.97
